sensor_id;sensor_type;location;lat;lon;timestamp;P1;durP1;ratioP1;P2;durP2;ratioP2
61675;SDS011;47574;52.090;5.244;2023-07-29T00:00:44;2.9;;;1.6;;
61675;SDS011;47574;52.090;5.244;2023-07-29T00:02:20;2.21;;;1.6;;
61675;SDS011;47574;52.090;5.244;2023-07-29T00:05:32;1.5;;;1.3;;
61675;SDS011;47574;52.090;5.244;2023-07-29T00:07:08;2.1;;;1.4;;
61675;SDS011;47574;52.090;5.244;2023-07-29T00:08:44;2.6;;;1.5;;
61675;SDS011;47574;52.090;5.244;2023-07-29T00:11:56;1.5;;;1.4;;
61675;SDS011;47574;52.090;5.244;2023-07-29T00:13:33;3.2;;;1.3;;
61675;SDS011;47574;52.090;5.244;2023-07-29T00:15:09;2.6;;;1.4;;
61675;SDS011;47574;52.090;5.244;2023-07-29T00:18:24;3.7;;;2.8;;
61675;SDS011;47574;52.090;5.244;2023-07-29T00:20:00;2.21;;;1.6;;
61675;SDS011;47574;52.090;5.244;2023-07-29T00:21:36;2.1;;;1.4;;
61675;SDS011;47574;52.090;5.244;2023-07-29T00:24:51;3.3;;;1.4;;
61675;SDS011;47574;52.090;5.244;2023-07-29T00:26:27;2.9;;;1.6;;
61675;SDS011;47574;52.090;5.244;2023-07-29T00:28:04;2.1;;;1.2;;
61675;SDS011;47574;52.090;5.244;2023-07-29T00:29:40;2.8;;;1.5;;
61675;SDS011;47574;52.090;5.244;2023-07-29T00:32:52;2.6;;;1.9;;
61675;SDS011;47574;52.090;5.244;2023-07-29T00:34:28;1.9;;;1.5;;
61675;SDS011;47574;52.090;5.244;2023-07-29T00:36:04;3.4;;;1.4;;
61675;SDS011;47574;52.090;5.244;2023-07-29T00:39:16;3.0;;;1.4;;
61675;SDS011;47574;52.090;5.244;2023-07-29T00:40:53;2.4;;;1.4;;
61675;SDS011;47574;52.090;5.244;2023-07-29T00:42:29;3.9;;;1.6;;
61675;SDS011;47574;52.090;5.244;2023-07-29T00:45:41;3.9;;;1.8;;
61675;SDS011;47574;52.090;5.244;2023-07-29T00:47:20;2.4;;;1.7;;
61675;SDS011;47574;52.090;5.244;2023-07-29T00:48:57;3.4;;;1.8;;
61675;SDS011;47574;52.090;5.244;2023-07-29T00:50:33;2.0;;;1.7;;
61675;SDS011;47574;52.090;5.244;2023-07-29T00:53:46;3.2;;;1.6;;
61675;SDS011;47574;52.090;5.244;2023-07-29T00:55:22;4.2;;;2.0;;
61675;SDS011;47574;52.090;5.244;2023-07-29T00:56:58;2.4;;;1.8;;
61675;SDS011;47574;52.090;5.244;2023-07-29T01:00:10;2.8;;;1.8;;
61675;SDS011;47574;52.090;5.244;2023-07-29T01:01:47;3.0;;;1.9;;
61675;SDS011;47574;52.090;5.244;2023-07-29T01:03:23;2.6;;;1.7;;
61675;SDS011;47574;52.090;5.244;2023-07-29T01:06:38;3.1;;;2.0;;
61675;SDS011;47574;52.090;5.244;2023-07-29T01:08:28;3.8;;;1.9;;
61675;SDS011;47574;52.090;5.244;2023-07-29T01:10:10;2.31;;;1.8;;
61675;SDS011;47574;52.090;5.244;2023-07-29T01:11:57;3.9;;;2.0;;
61675;SDS011;47574;52.090;5.244;2023-07-29T01:13:45;2.31;;;2.1;;
61675;SDS011;47574;52.090;5.244;2023-07-29T01:17:13;3.1;;;2.1;;
61675;SDS011;47574;52.090;5.244;2023-07-29T01:19:06;2.1;;;1.9;;
61675;SDS011;47574;52.090;5.244;2023-07-29T01:20:44;3.3;;;2.21;;
61675;SDS011;47574;52.090;5.244;2023-07-29T01:22:23;3.4;;;2.5;;
61675;SDS011;47574;52.090;5.244;2023-07-29T01:24:00;4.91;;;2.6;;
61675;SDS011;47574;52.090;5.244;2023-07-29T01:27:12;2.8;;;2.5;;
61675;SDS011;47574;52.090;5.244;2023-07-29T01:28:48;4.91;;;2.5;;
61675;SDS011;47574;52.090;5.244;2023-07-29T01:30:25;4.0;;;2.4;;
61675;SDS011;47574;52.090;5.244;2023-07-29T01:33:57;5.2;;;2.6;;
61675;SDS011;47574;52.090;5.244;2023-07-29T01:35:39;5.2;;;2.9;;
61675;SDS011;47574;52.090;5.244;2023-07-29T01:37:22;3.7;;;2.7;;
61675;SDS011;47574;52.090;5.244;2023-07-29T01:39:02;7.8;;;2.8;;
61675;SDS011;47574;52.090;5.244;2023-07-29T01:40:38;4.8;;;3.1;;
61675;SDS011;47574;52.090;5.244;2023-07-29T01:43:52;4.61;;;2.9;;
61675;SDS011;47574;52.090;5.244;2023-07-29T01:45:29;5.5;;;3.2;;
61675;SDS011;47574;52.090;5.244;2023-07-29T01:47:06;5.0;;;3.1;;
61675;SDS011;47574;52.090;5.244;2023-07-29T01:50:18;4.7;;;3.0;;
61675;SDS011;47574;52.090;5.244;2023-07-29T01:51:54;7.8;;;3.3;;
61675;SDS011;47574;52.090;5.244;2023-07-29T01:53:30;5.0;;;3.2;;
61675;SDS011;47574;52.090;5.244;2023-07-29T01:56:43;5.2;;;3.1;;
61675;SDS011;47574;52.090;5.244;2023-07-29T01:58:19;6.5;;;3.5;;
61675;SDS011;47574;52.090;5.244;2023-07-29T01:59:56;7.4;;;3.6;;
61675;SDS011;47574;52.090;5.244;2023-07-29T02:03:08;5.9;;;3.6;;
61675;SDS011;47574;52.090;5.244;2023-07-29T02:04:44;5.9;;;3.8;;
61675;SDS011;47574;52.090;5.244;2023-07-29T02:06:20;7.0;;;4.0;;
61675;SDS011;47574;52.090;5.244;2023-07-29T02:07:56;5.2;;;3.5;;
61675;SDS011;47574;52.090;5.244;2023-07-29T02:11:09;10.3;;;3.9;;
61675;SDS011;47574;52.090;5.244;2023-07-29T02:12:45;7.0;;;3.7;;
61675;SDS011;47574;52.090;5.244;2023-07-29T02:14:21;5.5;;;3.5;;
61675;SDS011;47574;52.090;5.244;2023-07-29T02:17:33;7.1;;;3.7;;
61675;SDS011;47574;52.090;5.244;2023-07-29T02:19:09;7.4;;;3.9;;
61675;SDS011;47574;52.090;5.244;2023-07-29T02:20:45;5.11;;;3.9;;
61675;SDS011;47574;52.090;5.244;2023-07-29T02:23:58;4.91;;;3.9;;
61675;SDS011;47574;52.090;5.244;2023-07-29T02:25:34;7.7;;;4.2;;
61675;SDS011;47574;52.090;5.244;2023-07-29T02:27:11;7.7;;;4.1;;
61675;SDS011;47574;52.090;5.244;2023-07-29T02:28:47;8.2;;;4.7;;
61675;SDS011;47574;52.090;5.244;2023-07-29T02:31:59;8.2;;;4.5;;
61675;SDS011;47574;52.090;5.244;2023-07-29T02:33:35;7.3;;;4.41;;
61675;SDS011;47574;52.090;5.244;2023-07-29T02:35:11;5.7;;;4.0;;
61675;SDS011;47574;52.090;5.244;2023-07-29T02:38:24;5.8;;;3.9;;
61675;SDS011;47574;52.090;5.244;2023-07-29T02:40:00;5.5;;;3.8;;
61675;SDS011;47574;52.090;5.244;2023-07-29T02:41:36;7.7;;;3.8;;
61675;SDS011;47574;52.090;5.244;2023-07-29T02:44:48;7.0;;;3.8;;
61675;SDS011;47574;52.090;5.244;2023-07-29T02:46:24;5.0;;;3.4;;
61675;SDS011;47574;52.090;5.244;2023-07-29T02:48:00;5.3;;;3.7;;
61675;SDS011;47574;52.090;5.244;2023-07-29T02:51:13;5.3;;;3.5;;
61675;SDS011;47574;52.090;5.244;2023-07-29T02:52:49;5.4;;;3.5;;
61675;SDS011;47574;52.090;5.244;2023-07-29T02:54:25;4.3;;;3.0;;
61675;SDS011;47574;52.090;5.244;2023-07-29T02:56:01;4.2;;;3.1;;
61675;SDS011;47574;52.090;5.244;2023-07-29T02:59:13;4.3;;;3.2;;
61675;SDS011;47574;52.090;5.244;2023-07-29T03:00:49;3.8;;;3.2;;
61675;SDS011;47574;52.090;5.244;2023-07-29T03:02:25;3.3;;;3.0;;
61675;SDS011;47574;52.090;5.244;2023-07-29T03:05:38;5.0;;;3.0;;
61675;SDS011;47574;52.090;5.244;2023-07-29T03:07:14;4.5;;;3.0;;
61675;SDS011;47574;52.090;5.244;2023-07-29T03:08:50;4.5;;;3.0;;
61675;SDS011;47574;52.090;5.244;2023-07-29T03:12:02;4.61;;;3.0;;
61675;SDS011;47574;52.090;5.244;2023-07-29T03:13:38;4.61;;;3.0;;
61675;SDS011;47574;52.090;5.244;2023-07-29T03:15:15;4.8;;;2.7;;
61675;SDS011;47574;52.090;5.244;2023-07-29T03:18:27;4.41;;;3.1;;
61675;SDS011;47574;52.090;5.244;2023-07-29T03:20:03;3.5;;;2.7;;
61675;SDS011;47574;52.090;5.244;2023-07-29T03:21:40;4.5;;;2.6;;
61675;SDS011;47574;52.090;5.244;2023-07-29T03:23:16;3.2;;;2.6;;
61675;SDS011;47574;52.090;5.244;2023-07-29T03:26:28;3.6;;;2.7;;
61675;SDS011;47574;52.090;5.244;2023-07-29T03:28:05;4.8;;;2.7;;
61675;SDS011;47574;52.090;5.244;2023-07-29T03:29:41;3.8;;;2.9;;
61675;SDS011;47574;52.090;5.244;2023-07-29T03:32:53;3.7;;;2.7;;
61675;SDS011;47574;52.090;5.244;2023-07-29T03:34:29;5.0;;;2.6;;
61675;SDS011;47574;52.090;5.244;2023-07-29T03:36:05;3.6;;;2.6;;
61675;SDS011;47574;52.090;5.244;2023-07-29T03:39:17;4.5;;;2.4;;
61675;SDS011;47574;52.090;5.244;2023-07-29T03:40:54;3.8;;;2.31;;
61675;SDS011;47574;52.090;5.244;2023-07-29T03:42:30;3.5;;;2.21;;
61675;SDS011;47574;52.090;5.244;2023-07-29T03:44:06;3.6;;;2.5;;
61675;SDS011;47574;52.090;5.244;2023-07-29T03:47:18;2.6;;;2.21;;
61675;SDS011;47574;52.090;5.244;2023-07-29T03:48:54;2.4;;;2.21;;
61675;SDS011;47574;52.090;5.244;2023-07-29T03:50:30;3.2;;;2.5;;
61675;SDS011;47574;52.090;5.244;2023-07-29T03:53:46;3.8;;;2.4;;
61675;SDS011;47574;52.090;5.244;2023-07-29T03:55:22;4.2;;;2.7;;
61675;SDS011;47574;52.090;5.244;2023-07-29T03:56:59;2.9;;;2.31;;
61675;SDS011;47574;52.090;5.244;2023-07-29T04:00:11;3.3;;;2.31;;
61675;SDS011;47574;52.090;5.244;2023-07-29T04:01:48;4.1;;;2.7;;
61675;SDS011;47574;52.090;5.244;2023-07-29T04:03:24;2.6;;;2.4;;
61675;SDS011;47574;52.090;5.244;2023-07-29T04:05:00;3.5;;;2.5;;
61675;SDS011;47574;52.090;5.244;2023-07-29T04:08:13;2.6;;;2.4;;
61675;SDS011;47574;52.090;5.244;2023-07-29T04:09:49;2.8;;;2.6;;
61675;SDS011;47574;52.090;5.244;2023-07-29T04:11:25;4.7;;;2.6;;
61675;SDS011;47574;52.090;5.244;2023-07-29T04:14:37;3.2;;;2.5;;
61675;SDS011;47574;52.090;5.244;2023-07-29T04:16:13;3.2;;;2.6;;
61675;SDS011;47574;52.090;5.244;2023-07-29T04:17:49;4.1;;;2.5;;
61675;SDS011;47574;52.090;5.244;2023-07-29T04:21:02;5.0;;;2.6;;
61675;SDS011;47574;52.090;5.244;2023-07-29T04:22:38;2.6;;;2.4;;
61675;SDS011;47574;52.090;5.244;2023-07-29T04:24:14;3.4;;;2.7;;
61675;SDS011;47574;52.090;5.244;2023-07-29T04:27:26;2.8;;;2.5;;
61675;SDS011;47574;52.090;5.244;2023-07-29T04:29:02;2.8;;;2.4;;
61675;SDS011;47574;52.090;5.244;2023-07-29T04:30:38;2.4;;;2.21;;
61675;SDS011;47574;52.090;5.244;2023-07-29T04:32:15;3.0;;;2.31;;
61675;SDS011;47574;52.090;5.244;2023-07-29T04:35:27;2.5;;;2.21;;
61675;SDS011;47574;52.090;5.244;2023-07-29T04:37:03;3.6;;;2.4;;
61675;SDS011;47574;52.090;5.244;2023-07-29T04:38:39;3.1;;;2.0;;
61675;SDS011;47574;52.090;5.244;2023-07-29T04:41:51;3.8;;;2.4;;
61675;SDS011;47574;52.090;5.244;2023-07-29T04:43:28;4.2;;;2.31;;
61675;SDS011;47574;52.090;5.244;2023-07-29T04:45:06;2.9;;;2.5;;
61675;SDS011;47574;52.090;5.244;2023-07-29T04:48:19;3.2;;;2.4;;
61675;SDS011;47574;52.090;5.244;2023-07-29T04:49:55;3.9;;;2.4;;
61675;SDS011;47574;52.090;5.244;2023-07-29T04:51:31;3.2;;;2.21;;
61675;SDS011;47574;52.090;5.244;2023-07-29T04:53:07;4.41;;;2.31;;
61675;SDS011;47574;52.090;5.244;2023-07-29T04:56:19;3.1;;;2.4;;
61675;SDS011;47574;52.090;5.244;2023-07-29T04:57:56;2.6;;;2.4;;
61675;SDS011;47574;52.090;5.244;2023-07-29T04:59:32;2.8;;;2.6;;
61675;SDS011;47574;52.090;5.244;2023-07-29T05:02:44;3.2;;;2.6;;
61675;SDS011;47574;52.090;5.244;2023-07-29T05:04:20;2.6;;;2.4;;
61675;SDS011;47574;52.090;5.244;2023-07-29T05:05:58;3.1;;;2.8;;
61675;SDS011;47574;52.090;5.244;2023-07-29T05:09:12;3.8;;;2.9;;
61675;SDS011;47574;52.090;5.244;2023-07-29T05:10:50;3.7;;;2.8;;
61675;SDS011;47574;52.090;5.244;2023-07-29T05:12:27;4.3;;;2.8;;
61675;SDS011;47574;52.090;5.244;2023-07-29T05:14:03;3.4;;;2.7;;
61675;SDS011;47574;52.090;5.244;2023-07-29T05:17:15;3.8;;;2.9;;
61675;SDS011;47574;52.090;5.244;2023-07-29T05:18:51;5.11;;;3.2;;
61675;SDS011;47574;52.090;5.244;2023-07-29T05:20:27;3.6;;;2.8;;
61675;SDS011;47574;52.090;5.244;2023-07-29T05:23:40;3.4;;;3.1;;
61675;SDS011;47574;52.090;5.244;2023-07-29T05:25:16;3.5;;;3.0;;
61675;SDS011;47574;52.090;5.244;2023-07-29T05:26:52;4.2;;;3.0;;
61675;SDS011;47574;52.090;5.244;2023-07-29T05:30:05;3.9;;;3.4;;
61675;SDS011;47574;52.090;5.244;2023-07-29T05:31:42;4.5;;;3.4;;
61675;SDS011;47574;52.090;5.244;2023-07-29T05:33:18;6.1;;;3.8;;
61675;SDS011;47574;52.090;5.244;2023-07-29T05:36:31;4.61;;;3.1;;
61675;SDS011;47574;52.090;5.244;2023-07-29T05:38:07;3.8;;;3.4;;
61675;SDS011;47574;52.090;5.244;2023-07-29T05:39:43;5.7;;;3.7;;
61675;SDS011;47574;52.090;5.244;2023-07-29T05:41:19;5.6;;;3.7;;
61675;SDS011;47574;52.090;5.244;2023-07-29T05:44:31;6.4;;;3.6;;
61675;SDS011;47574;52.090;5.244;2023-07-29T05:46:07;4.2;;;3.7;;
61675;SDS011;47574;52.090;5.244;2023-07-29T05:47:43;4.2;;;3.4;;
61675;SDS011;47574;52.090;5.244;2023-07-29T05:50:56;5.11;;;3.9;;
61675;SDS011;47574;52.090;5.244;2023-07-29T05:52:32;4.5;;;3.8;;
61675;SDS011;47574;52.090;5.244;2023-07-29T05:54:09;5.5;;;3.7;;
61675;SDS011;47574;52.090;5.244;2023-07-29T05:57:21;6.4;;;3.9;;
61675;SDS011;47574;52.090;5.244;2023-07-29T05:58:57;4.1;;;3.7;;
61675;SDS011;47574;52.090;5.244;2023-07-29T06:00:33;4.8;;;4.0;;
61675;SDS011;47574;52.090;5.244;2023-07-29T06:02:10;6.3;;;4.2;;
61675;SDS011;47574;52.090;5.244;2023-07-29T06:05:22;8.71;;;4.5;;
61675;SDS011;47574;52.090;5.244;2023-07-29T06:06:58;5.8;;;4.0;;
61675;SDS011;47574;52.090;5.244;2023-07-29T06:08:34;8.31;;;4.41;;
61675;SDS011;47574;52.090;5.244;2023-07-29T06:11:49;7.7;;;4.61;;
61675;SDS011;47574;52.090;5.244;2023-07-29T06:13:25;6.6;;;4.5;;
61675;SDS011;47574;52.090;5.244;2023-07-29T06:15:02;7.6;;;4.2;;
61675;SDS011;47574;52.090;5.244;2023-07-29T06:18:14;7.1;;;4.61;;
61675;SDS011;47574;52.090;5.244;2023-07-29T06:19:50;5.2;;;4.41;;
61675;SDS011;47574;52.090;5.244;2023-07-29T06:21:26;6.3;;;4.3;;
61675;SDS011;47574;52.090;5.244;2023-07-29T06:24:39;9.1;;;4.5;;
61675;SDS011;47574;52.090;5.244;2023-07-29T06:26:15;5.9;;;4.2;;
61675;SDS011;47574;52.090;5.244;2023-07-29T06:27:52;6.6;;;4.1;;
61675;SDS011;47574;52.090;5.244;2023-07-29T06:29:28;6.7;;;3.8;;
61675;SDS011;47574;52.090;5.244;2023-07-29T06:32:40;6.1;;;4.0;;
61675;SDS011;47574;52.090;5.244;2023-07-29T06:34:16;6.7;;;4.41;;
61675;SDS011;47574;52.090;5.244;2023-07-29T06:35:53;6.4;;;4.2;;
61675;SDS011;47574;52.090;5.244;2023-07-29T06:39:06;7.7;;;4.61;;
61675;SDS011;47574;52.090;5.244;2023-07-29T06:40:42;6.6;;;4.3;;
61675;SDS011;47574;52.090;5.244;2023-07-29T06:42:18;6.5;;;4.3;;
61675;SDS011;47574;52.090;5.244;2023-07-29T06:45:30;5.8;;;4.61;;
61675;SDS011;47574;52.090;5.244;2023-07-29T06:47:06;7.7;;;4.41;;
61675;SDS011;47574;52.090;5.244;2023-07-29T06:48:42;7.4;;;4.3;;
61675;SDS011;47574;52.090;5.244;2023-07-29T06:50:19;6.8;;;4.5;;
61675;SDS011;47574;52.090;5.244;2023-07-29T06:53:31;5.3;;;4.8;;
61675;SDS011;47574;52.090;5.244;2023-07-29T06:55:07;7.4;;;4.41;;
61675;SDS011;47574;52.090;5.244;2023-07-29T06:56:43;5.9;;;4.5;;
61675;SDS011;47574;52.090;5.244;2023-07-29T06:59:57;6.5;;;4.61;;
61675;SDS011;47574;52.090;5.244;2023-07-29T07:01:33;8.1;;;4.5;;
61675;SDS011;47574;52.090;5.244;2023-07-29T07:03:10;5.11;;;4.0;;
61675;SDS011;47574;52.090;5.244;2023-07-29T07:06:22;6.8;;;4.5;;
61675;SDS011;47574;52.090;5.244;2023-07-29T07:07:58;7.8;;;5.0;;
61675;SDS011;47574;52.090;5.244;2023-07-29T07:09:34;6.0;;;4.41;;
61675;SDS011;47574;52.090;5.244;2023-07-29T07:12:47;7.3;;;4.7;;
61675;SDS011;47574;52.090;5.244;2023-07-29T07:14:23;6.4;;;4.8;;
61675;SDS011;47574;52.090;5.244;2023-07-29T07:17:36;6.4;;;4.91;;
61675;SDS011;47574;52.090;5.244;2023-07-29T07:20:48;6.2;;;5.11;;
61675;SDS011;47574;52.090;5.244;2023-07-29T07:22:25;6.6;;;4.5;;
61675;SDS011;47574;52.090;5.244;2023-07-29T07:24:01;8.9;;;5.0;;
61675;SDS011;47574;52.090;5.244;2023-07-29T07:27:13;5.8;;;4.5;;
61675;SDS011;47574;52.090;5.244;2023-07-29T07:28:50;5.7;;;4.41;;
61675;SDS011;47574;52.090;5.244;2023-07-29T07:30:26;8.6;;;4.2;;
61675;SDS011;47574;52.090;5.244;2023-07-29T07:33:39;5.2;;;4.41;;
61675;SDS011;47574;52.090;5.244;2023-07-29T07:35:15;6.0;;;4.5;;
61675;SDS011;47574;52.090;5.244;2023-07-29T07:36:51;5.6;;;4.7;;
61675;SDS011;47574;52.090;5.244;2023-07-29T07:38:27;6.4;;;4.8;;
61675;SDS011;47574;52.090;5.244;2023-07-29T07:41:41;6.1;;;4.5;;
61675;SDS011;47574;52.090;5.244;2023-07-29T07:43:18;5.3;;;4.2;;
61675;SDS011;47574;52.090;5.244;2023-07-29T07:44:54;6.8;;;4.7;;
61675;SDS011;47574;52.090;5.244;2023-07-29T07:48:06;4.91;;;4.41;;
61675;SDS011;47574;52.090;5.244;2023-07-29T07:49:42;4.91;;;4.0;;
61675;SDS011;47574;52.090;5.244;2023-07-29T07:51:18;4.2;;;3.8;;
61675;SDS011;47574;52.090;5.244;2023-07-29T07:54:31;7.3;;;4.41;;
61675;SDS011;47574;52.090;5.244;2023-07-29T07:56:07;4.91;;;4.0;;
61675;SDS011;47574;52.090;5.244;2023-07-29T07:57:43;4.7;;;3.9;;
61675;SDS011;47574;52.090;5.244;2023-07-29T07:59:19;4.7;;;3.9;;
61675;SDS011;47574;52.090;5.244;2023-07-29T08:02:36;4.5;;;4.1;;
61675;SDS011;47574;52.090;5.244;2023-07-29T08:04:12;4.8;;;3.9;;
61675;SDS011;47574;52.090;5.244;2023-07-29T08:05:49;5.2;;;3.9;;
61675;SDS011;47574;52.090;5.244;2023-07-29T08:09:01;4.1;;;3.7;;
61675;SDS011;47574;52.090;5.244;2023-07-29T08:10:37;4.7;;;3.5;;
61675;SDS011;47574;52.090;5.244;2023-07-29T08:12:13;3.6;;;3.1;;
61675;SDS011;47574;52.090;5.244;2023-07-29T08:15:25;4.8;;;3.2;;
61675;SDS011;47574;52.090;5.244;2023-07-29T08:17:01;4.8;;;2.8;;
61675;SDS011;47574;52.090;5.244;2023-07-29T08:18:38;5.5;;;2.7;;
61675;SDS011;47574;52.090;5.244;2023-07-29T08:21:50;3.0;;;2.7;;
61675;SDS011;47574;52.090;5.244;2023-07-29T08:23:26;3.0;;;2.7;;
61675;SDS011;47574;52.090;5.244;2023-07-29T08:25:03;3.7;;;3.1;;
61675;SDS011;47574;52.090;5.244;2023-07-29T08:26:40;4.2;;;3.1;;
61675;SDS011;47574;52.090;5.244;2023-07-29T08:29:53;5.7;;;2.8;;
61675;SDS011;47574;52.090;5.244;2023-07-29T08:31:30;3.0;;;2.5;;
61675;SDS011;47574;52.090;5.244;2023-07-29T08:33:06;4.0;;;2.6;;
61675;SDS011;47574;52.090;5.244;2023-07-29T08:37:54;3.3;;;3.0;;
61675;SDS011;47574;52.090;5.244;2023-07-29T08:39:30;3.5;;;2.31;;
61675;SDS011;47574;52.090;5.244;2023-07-29T08:42:52;2.8;;;2.0;;
61675;SDS011;47574;52.090;5.244;2023-07-29T08:44:35;3.8;;;2.21;;
61675;SDS011;47574;52.090;5.244;2023-07-29T08:46:16;2.6;;;2.31;;
61675;SDS011;47574;52.090;5.244;2023-07-29T08:47:52;3.0;;;2.6;;
61675;SDS011;47574;52.090;5.244;2023-07-29T08:49:33;5.3;;;2.8;;
61675;SDS011;47574;52.090;5.244;2023-07-29T08:52:47;5.5;;;2.5;;
61675;SDS011;47574;52.090;5.244;2023-07-29T08:54:24;3.6;;;2.8;;
61675;SDS011;47574;52.090;5.244;2023-07-29T08:56:01;4.61;;;3.0;;
61675;SDS011;47574;52.090;5.244;2023-07-29T08:59:14;4.41;;;2.5;;
61675;SDS011;47574;52.090;5.244;2023-07-29T09:00:51;3.3;;;3.0;;
61675;SDS011;47574;52.090;5.244;2023-07-29T09:02:28;4.41;;;3.0;;
61675;SDS011;47574;52.090;5.244;2023-07-29T09:05:40;4.5;;;2.9;;
61675;SDS011;47574;52.090;5.244;2023-07-29T09:07:16;3.8;;;3.0;;
61675;SDS011;47574;52.090;5.244;2023-07-29T09:08:54;3.3;;;3.0;;
61675;SDS011;47574;52.090;5.244;2023-07-29T09:10:30;3.5;;;3.2;;
61675;SDS011;47574;52.090;5.244;2023-07-29T09:13:47;3.8;;;3.0;;
61675;SDS011;47574;52.090;5.244;2023-07-29T09:15:27;4.5;;;2.8;;
61675;SDS011;47574;52.090;5.244;2023-07-29T09:17:06;4.91;;;2.9;;
61675;SDS011;47574;52.090;5.244;2023-07-29T09:20:23;3.8;;;3.0;;
61675;SDS011;47574;52.090;5.244;2023-07-29T09:22:00;3.1;;;2.7;;
61675;SDS011;47574;52.090;5.244;2023-07-29T09:23:39;6.1;;;3.1;;
61675;SDS011;47574;52.090;5.244;2023-07-29T09:25:16;4.3;;;2.8;;
61675;SDS011;47574;52.090;5.244;2023-07-29T09:28:35;5.4;;;3.3;;
61675;SDS011;47574;52.090;5.244;2023-07-29T09:30:15;3.5;;;3.1;;
61675;SDS011;47574;52.090;5.244;2023-07-29T09:31:51;5.4;;;3.3;;
61675;SDS011;47574;52.090;5.244;2023-07-29T09:35:08;3.6;;;3.2;;
61675;SDS011;47574;52.090;5.244;2023-07-29T09:36:46;5.11;;;3.2;;
61675;SDS011;47574;52.090;5.244;2023-07-29T09:38:26;4.7;;;3.0;;
61675;SDS011;47574;52.090;5.244;2023-07-29T09:40:03;3.3;;;3.0;;
61675;SDS011;47574;52.090;5.244;2023-07-29T09:43:16;4.0;;;3.1;;
61675;SDS011;47574;52.090;5.244;2023-07-29T09:44:52;4.2;;;3.8;;
61675;SDS011;47574;52.090;5.244;2023-07-29T09:46:31;3.9;;;3.5;;
61675;SDS011;47574;52.090;5.244;2023-07-29T09:48:09;7.2;;;3.7;;
61675;SDS011;47574;52.090;5.244;2023-07-29T09:52:57;8.0;;;5.3;;
61675;SDS011;47574;52.090;5.244;2023-07-29T09:54:33;6.9;;;5.3;;
61675;SDS011;47574;52.090;5.244;2023-07-29T09:57:49;5.7;;;5.11;;
61675;SDS011;47574;52.090;5.244;2023-07-29T09:59:30;5.9;;;5.3;;
61675;SDS011;47574;52.090;5.244;2023-07-29T10:01:10;5.5;;;5.0;;
61675;SDS011;47574;52.090;5.244;2023-07-29T10:02:47;5.11;;;4.7;;
61675;SDS011;47574;52.090;5.244;2023-07-29T10:06:03;6.3;;;5.2;;
61675;SDS011;47574;52.090;5.244;2023-07-29T10:07:39;6.4;;;5.8;;
61675;SDS011;47574;52.090;5.244;2023-07-29T10:09:15;5.8;;;5.2;;
61675;SDS011;47574;52.090;5.244;2023-07-29T10:12:31;5.9;;;5.3;;
61675;SDS011;47574;52.090;5.244;2023-07-29T10:14:08;6.8;;;5.3;;
61675;SDS011;47574;52.090;5.244;2023-07-29T10:15:45;7.0;;;5.2;;
61675;SDS011;47574;52.090;5.244;2023-07-29T10:19:01;6.2;;;5.6;;
61675;SDS011;47574;52.090;5.244;2023-07-29T10:20:38;6.4;;;5.8;;
61675;SDS011;47574;52.090;5.244;2023-07-29T10:22:19;8.1;;;5.5;;
61675;SDS011;47574;52.090;5.244;2023-07-29T10:23:57;6.3;;;5.5;;
61675;SDS011;47574;52.090;5.244;2023-07-29T10:27:23;5.5;;;5.0;;
61675;SDS011;47574;52.090;5.244;2023-07-29T10:29:01;5.7;;;5.0;;
61675;SDS011;47574;52.090;5.244;2023-07-29T10:30:42;6.1;;;4.8;;
61675;SDS011;47574;52.090;5.244;2023-07-29T10:32:18;6.1;;;5.5;;
61675;SDS011;47574;52.090;5.244;2023-07-29T10:35:38;5.6;;;4.91;;
61675;SDS011;47574;52.090;5.244;2023-07-29T10:37:14;7.0;;;5.2;;
61675;SDS011;47574;52.090;5.244;2023-07-29T10:38:51;6.1;;;5.4;;
61675;SDS011;47574;52.090;5.244;2023-07-29T10:40:43;4.91;;;4.5;;
61675;SDS011;47574;52.090;5.244;2023-07-29T10:43:57;5.9;;;4.8;;
61675;SDS011;47574;52.090;5.244;2023-07-29T10:45:37;4.3;;;4.0;;
61675;SDS011;47574;52.090;5.244;2023-07-29T10:47:15;4.91;;;4.41;;
61675;SDS011;47574;52.090;5.244;2023-07-29T10:48:54;5.11;;;4.5;;
61675;SDS011;47574;52.090;5.244;2023-07-29T10:52:07;4.3;;;3.9;;
61675;SDS011;47574;52.090;5.244;2023-07-29T10:53:43;5.0;;;3.9;;
61675;SDS011;47574;52.090;5.244;2023-07-29T10:55:27;3.3;;;3.1;;
61675;SDS011;47574;52.090;5.244;2023-07-29T10:58:42;6.7;;;3.0;;
61675;SDS011;47574;52.090;5.244;2023-07-29T11:00:19;3.6;;;3.0;;
61675;SDS011;47574;52.090;5.244;2023-07-29T11:01:56;3.1;;;2.8;;
61675;SDS011;47574;52.090;5.244;2023-07-29T11:03:34;4.2;;;2.6;;
61675;SDS011;47574;52.090;5.244;2023-07-29T11:07:25;2.21;;;1.9;;
61675;SDS011;47574;52.090;5.244;2023-07-29T11:09:21;2.6;;;1.8;;
61675;SDS011;47574;52.090;5.244;2023-07-29T11:11:14;1.9;;;1.8;;
61675;SDS011;47574;52.090;5.244;2023-07-29T11:12:51;1.5;;;1.4;;
61675;SDS011;47574;52.090;5.244;2023-07-29T11:14:28;2.6;;;1.3;;
61675;SDS011;47574;52.090;5.244;2023-07-29T11:16:05;2.4;;;1.7;;
61675;SDS011;47574;52.090;5.244;2023-07-29T11:19:20;1.9;;;1.4;;
61675;SDS011;47574;52.090;5.244;2023-07-29T11:20:57;4.41;;;1.6;;
61675;SDS011;47574;52.090;5.244;2023-07-29T11:22:35;2.1;;;1.6;;
61675;SDS011;47574;52.090;5.244;2023-07-29T11:25:54;1.5;;;1.4;;
61675;SDS011;47574;52.090;5.244;2023-07-29T11:27:30;2.6;;;1.5;;
61675;SDS011;47574;52.090;5.244;2023-07-29T11:29:06;1.9;;;1.5;;
61675;SDS011;47574;52.090;5.244;2023-07-29T11:30:45;2.1;;;1.7;;
61675;SDS011;47574;52.090;5.244;2023-07-29T11:33:57;1.7;;;1.6;;
61675;SDS011;47574;52.090;5.244;2023-07-29T11:35:33;2.1;;;1.8;;
61675;SDS011;47574;52.090;5.244;2023-07-29T11:37:10;2.31;;;1.9;;
61675;SDS011;47574;52.090;5.244;2023-07-29T11:40:23;1.6;;;1.5;;
61675;SDS011;47574;52.090;5.244;2023-07-29T11:42:00;1.8;;;1.7;;
61675;SDS011;47574;52.090;5.244;2023-07-29T11:43:36;2.0;;;1.8;;
61675;SDS011;47574;52.090;5.244;2023-07-29T11:46:50;2.9;;;1.7;;
61675;SDS011;47574;52.090;5.244;2023-07-29T11:48:26;1.9;;;1.8;;
61675;SDS011;47574;52.090;5.244;2023-07-29T11:50:03;2.1;;;1.9;;
61675;SDS011;47574;52.090;5.244;2023-07-29T11:51:42;2.1;;;2.0;;
61675;SDS011;47574;52.090;5.244;2023-07-29T11:54:54;2.4;;;2.21;;
61675;SDS011;47574;52.090;5.244;2023-07-29T11:56:30;2.0;;;1.9;;
61675;SDS011;47574;52.090;5.244;2023-07-29T11:58:07;2.1;;;1.8;;
61675;SDS011;47574;52.090;5.244;2023-07-29T12:01:22;2.0;;;1.8;;
61675;SDS011;47574;52.090;5.244;2023-07-29T12:02:59;2.1;;;1.9;;
61675;SDS011;47574;52.090;5.244;2023-07-29T12:04:35;1.9;;;1.8;;
61675;SDS011;47574;52.090;5.244;2023-07-29T12:06:13;1.6;;;1.5;;
61675;SDS011;47574;52.090;5.244;2023-07-29T12:09:27;1.7;;;1.6;;
61675;SDS011;47574;52.090;5.244;2023-07-29T12:11:03;1.3;;;1.2;;
61675;SDS011;47574;52.090;5.244;2023-07-29T12:12:44;2.1;;;1.11;;
61675;SDS011;47574;52.090;5.244;2023-07-29T12:16:02;1.11;;;1.11;;
61675;SDS011;47574;52.090;5.244;2023-07-29T12:17:39;1.6;;;1.5;;
61675;SDS011;47574;52.090;5.244;2023-07-29T12:19:16;1.5;;;1.4;;
61675;SDS011;47574;52.090;5.244;2023-07-29T12:20:52;1.5;;;1.4;;
61675;SDS011;47574;52.090;5.244;2023-07-29T12:24:05;1.7;;;1.6;;
61675;SDS011;47574;52.090;5.244;2023-07-29T12:25:41;2.31;;;1.8;;
61675;SDS011;47574;52.090;5.244;2023-07-29T12:27:17;1.9;;;1.8;;
61675;SDS011;47574;52.090;5.244;2023-07-29T12:30:29;3.2;;;2.0;;
61675;SDS011;47574;52.090;5.244;2023-07-29T12:32:06;2.31;;;2.1;;
61675;SDS011;47574;52.090;5.244;2023-07-29T12:33:43;2.0;;;1.8;;
61675;SDS011;47574;52.090;5.244;2023-07-29T12:36:55;1.8;;;1.7;;
61675;SDS011;47574;52.090;5.244;2023-07-29T12:38:33;2.31;;;2.1;;
61675;SDS011;47574;52.090;5.244;2023-07-29T12:40:20;2.21;;;2.1;;
61675;SDS011;47574;52.090;5.244;2023-07-29T12:41:58;2.1;;;2.0;;
61675;SDS011;47574;52.090;5.244;2023-07-29T12:45:14;2.1;;;1.9;;
61675;SDS011;47574;52.090;5.244;2023-07-29T12:46:51;2.31;;;1.9;;
61675;SDS011;47574;52.090;5.244;2023-07-29T12:48:28;4.2;;;2.0;;
61675;SDS011;47574;52.090;5.244;2023-07-29T12:51:41;2.1;;;2.0;;
61675;SDS011;47574;52.090;5.244;2023-07-29T12:53:17;3.8;;;2.21;;
61675;SDS011;47574;52.090;5.244;2023-07-29T12:54:53;2.1;;;1.9;;
61675;SDS011;47574;52.090;5.244;2023-07-29T12:56:29;1.9;;;1.7;;
61675;SDS011;47574;52.090;5.244;2023-07-29T12:59:41;2.21;;;1.7;;
61675;SDS011;47574;52.090;5.244;2023-07-29T13:01:17;2.1;;;1.8;;
61675;SDS011;47574;52.090;5.244;2023-07-29T13:02:53;1.9;;;1.8;;